sensor_id;sensor_type;location;lat;lon;timestamp;temperature;humidity
17891;DHT22;9071;48.220;14.480;2022-12-29T00:04:53;-1.60;99.90
17891;DHT22;9071;48.220;14.480;2022-12-29T00:09:56;-1.60;99.90
17891;DHT22;9071;48.220;14.480;2022-12-29T00:14:58;-1.50;99.90
17891;DHT22;9071;48.220;14.480;2022-12-29T00:20:18;-1.30;99.90
17891;DHT22;9071;48.220;14.480;2022-12-29T00:25:39;-1.30;99.90
17891;DHT22;9071;48.220;14.480;2022-12-29T00:31:11;-1.30;99.90
17891;DHT22;9071;48.220;14.480;2022-12-29T00:36:33;-1.30;99.90
17891;DHT22;9071;48.220;14.480;2022-12-29T00:41:39;-1.10;99.90
17891;DHT22;9071;48.220;14.480;2022-12-29T00:46:58;-1.10;99.90
17891;DHT22;9071;48.220;14.480;2022-12-29T00:52:05;-1.10;99.90
17891;DHT22;9071;48.220;14.480;2022-12-29T00:57:10;-1.00;99.90
17891;DHT22;9071;48.220;14.480;2022-12-29T01:02:12;-1.00;99.90
17891;DHT22;9071;48.220;14.480;2022-12-29T01:07:14;-0.90;99.90
17891;DHT22;9071;48.220;14.480;2022-12-29T01:12:18;-0.90;99.90
17891;DHT22;9071;48.220;14.480;2022-12-29T01:17:40;-0.80;99.90
17891;DHT22;9071;48.220;14.480;2022-12-29T01:22:42;-0.80;99.90
17891;DHT22;9071;48.220;14.480;2022-12-29T01:27:47;-0.90;99.90
17891;DHT22;9071;48.220;14.480;2022-12-29T01:32:49;-0.90;99.90
17891;DHT22;9071;48.220;14.480;2022-12-29T01:37:51;-0.90;99.90
17891;DHT22;9071;48.220;14.480;2022-12-29T01:42:55;-1.00;99.90
17891;DHT22;9071;48.220;14.480;2022-12-29T01:47:58;-1.00;99.90
17891;DHT22;9071;48.220;14.480;2022-12-29T01:53:05;-0.90;99.90
17891;DHT22;9071;48.220;14.480;2022-12-29T01:58:10;-0.80;99.90
17891;DHT22;9071;48.220;14.480;2022-12-29T02:03:14;-0.90;99.90
17891;DHT22;9071;48.220;14.480;2022-12-29T02:08:17;-0.90;99.90
17891;DHT22;9071;48.220;14.480;2022-12-29T02:13:20;-0.80;99.90
17891;DHT22;9071;48.220;14.480;2022-12-29T02:18:29;-0.80;99.90
17891;DHT22;9071;48.220;14.480;2022-12-29T02:24:00;-0.70;99.90
17891;DHT22;9071;48.220;14.480;2022-12-29T02:29:25;-0.60;99.90
17891;DHT22;9071;48.220;14.480;2022-12-29T02:34:45;-0.60;99.90
17891;DHT22;9071;48.220;14.480;2022-12-29T02:39:55;-0.60;99.90
17891;DHT22;9071;48.220;14.480;2022-12-29T02:45:03;-0.70;99.90
17891;DHT22;9071;48.220;14.480;2022-12-29T02:50:13;-0.70;99.90
17891;DHT22;9071;48.220;14.480;2022-12-29T02:55:17;-0.70;99.90
17891;DHT22;9071;48.220;14.480;2022-12-29T03:00:19;-0.80;99.90
17891;DHT22;9071;48.220;14.480;2022-12-29T03:05:50;-0.90;99.90
17891;DHT22;9071;48.220;14.480;2022-12-29T03:11:01;-1.00;99.90
17891;DHT22;9071;48.220;14.480;2022-12-29T03:16:10;-1.00;99.90
17891;DHT22;9071;48.220;14.480;2022-12-29T03:21:19;-1.10;99.90
17891;DHT22;9071;48.220;14.480;2022-12-29T03:26:45;-1.20;99.90
17891;DHT22;9071;48.220;14.480;2022-12-29T03:31:49;-1.20;99.90
17891;DHT22;9071;48.220;14.480;2022-12-29T03:36:58;-1.30;99.90
17891;DHT22;9071;48.220;14.480;2022-12-29T03:42:05;-1.40;99.90
17891;DHT22;9071;48.220;14.480;2022-12-29T03:47:10;-1.50;99.90
17891;DHT22;9071;48.220;14.480;2022-12-29T03:52:13;-1.50;99.90
17891;DHT22;9071;48.220;14.480;2022-12-29T03:57:15;-1.50;99.90
17891;DHT22;9071;48.220;14.480;2022-12-29T04:02:17;-1.50;99.90
17891;DHT22;9071;48.220;14.480;2022-12-29T04:07:21;-1.70;99.90
17891;DHT22;9071;48.220;14.480;2022-12-29T04:12:23;-1.80;99.90
17891;DHT22;9071;48.220;14.480;2022-12-29T04:17:25;-1.80;99.90
17891;DHT22;9071;48.220;14.480;2022-12-29T04:22:28;-1.90;99.90
17891;DHT22;9071;48.220;14.480;2022-12-29T04:27:30;-1.80;99.90
17891;DHT22;9071;48.220;14.480;2022-12-29T04:32:32;-1.80;99.90
17891;DHT22;9071;48.220;14.480;2022-12-29T04:37:35;-1.80;99.90
17891;DHT22;9071;48.220;14.480;2022-12-29T04:42:37;-1.80;99.90
17891;DHT22;9071;48.220;14.480;2022-12-29T04:47:39;-1.80;99.90
17891;DHT22;9071;48.220;14.480;2022-12-29T04:52:43;-1.90;99.90
17891;DHT22;9071;48.220;14.480;2022-12-29T04:57:45;-2.00;99.90
17891;DHT22;9071;48.220;14.480;2022-12-29T05:02:47;-2.10;99.90
17891;DHT22;9071;48.220;14.480;2022-12-29T05:07:51;-2.20;99.90
17891;DHT22;9071;48.220;14.480;2022-12-29T05:12:53;-2.20;99.90
17891;DHT22;9071;48.220;14.480;2022-12-29T05:17:55;-2.20;99.90
17891;DHT22;9071;48.220;14.480;2022-12-29T05:22:58;-2.30;99.90
17891;DHT22;9071;48.220;14.480;2022-12-29T05:28:00;-2.40;99.90
17891;DHT22;9071;48.220;14.480;2022-12-29T05:33:02;-2.40;99.90
17891;DHT22;9071;48.220;14.480;2022-12-29T05:38:08;-2.40;99.90
17891;DHT22;9071;48.220;14.480;2022-12-29T05:43:10;-2.40;99.90
17891;DHT22;9071;48.220;14.480;2022-12-29T05:48:12;-2.60;99.90
17891;DHT22;9071;48.220;14.480;2022-12-29T05:53:16;-2.50;99.90
17891;DHT22;9071;48.220;14.480;2022-12-29T05:58:19;-2.40;99.90
17891;DHT22;9071;48.220;14.480;2022-12-29T06:03:21;-2.30;99.90
17891;DHT22;9071;48.220;14.480;2022-12-29T06:08:24;-2.30;99.90
17891;DHT22;9071;48.220;14.480;2022-12-29T06:13:26;-2.30;99.90
17891;DHT22;9071;48.220;14.480;2022-12-29T06:18:29;-2.20;99.90
17891;DHT22;9071;48.220;14.480;2022-12-29T06:23:32;-1.90;99.90
17891;DHT22;9071;48.220;14.480;2022-12-29T06:28:34;-2.00;99.90
17891;DHT22;9071;48.220;14.480;2022-12-29T06:33:36;-2.10;99.90
17891;DHT22;9071;48.220;14.480;2022-12-29T06:38:40;-2.00;99.90
17891;DHT22;9071;48.220;14.480;2022-12-29T06:43:42;-2.10;99.90
17891;DHT22;9071;48.220;14.480;2022-12-29T06:48:44;-2.00;99.90
17891;DHT22;9071;48.220;14.480;2022-12-29T06:53:47;-2.20;99.90
17891;DHT22;9071;48.220;14.480;2022-12-29T06:58:49;-2.30;99.90
17891;DHT22;9071;48.220;14.480;2022-12-29T07:03:52;-2.40;99.90
17891;DHT22;9071;48.220;14.480;2022-12-29T07:08:55;-2.40;99.90
17891;DHT22;9071;48.220;14.480;2022-12-29T07:13:58;-2.40;99.90
17891;DHT22;9071;48.220;14.480;2022-12-29T07:19:00;-2.30;99.90
17891;DHT22;9071;48.220;14.480;2022-12-29T07:24:04;-2.20;99.90
17891;DHT22;9071;48.220;14.480;2022-12-29T07:29:06;-2.00;99.90
17891;DHT22;9071;48.220;14.480;2022-12-29T07:34:08;-1.80;99.90
17891;DHT22;9071;48.220;14.480;2022-12-29T07:39:11;-1.60;99.90
17891;DHT22;9071;48.220;14.480;2022-12-29T07:44:13;-1.40;99.90
17891;DHT22;9071;48.220;14.480;2022-12-29T07:49:15;-1.30;99.90
17891;DHT22;9071;48.220;14.480;2022-12-29T07:54:19;-1.20;99.90
17891;DHT22;9071;48.220;14.480;2022-12-29T07:59:23;-1.10;99.90
17891;DHT22;9071;48.220;14.480;2022-12-29T08:04:25;-0.90;99.90
17891;DHT22;9071;48.220;14.480;2022-12-29T08:09:28;-0.60;99.90
17891;DHT22;9071;48.220;14.480;2022-12-29T08:14:30;-0.20;99.90
17891;DHT22;9071;48.220;14.480;2022-12-29T08:19:32;0.20;99.90
17891;DHT22;9071;48.220;14.480;2022-12-29T08:24:36;0.60;99.90
17891;DHT22;9071;48.220;14.480;2022-12-29T08:29:38;0.70;99.90
17891;DHT22;9071;48.220;14.480;2022-12-29T08:34:40;0.80;99.90
17891;DHT22;9071;48.220;14.480;2022-12-29T08:39:43;0.80;99.90
17891;DHT22;9071;48.220;14.480;2022-12-29T08:44:45;1.20;99.90
17891;DHT22;9071;48.220;14.480;2022-12-29T08:49:47;1.50;99.90
17891;DHT22;9071;48.220;14.480;2022-12-29T08:54:50;1.70;99.90
17891;DHT22;9071;48.220;14.480;2022-12-29T08:59:52;1.70;99.90
17891;DHT22;9071;48.220;14.480;2022-12-29T09:04:54;1.70;99.90
17891;DHT22;9071;48.220;14.480;2022-12-29T09:09:59;1.70;99.90
17891;DHT22;9071;48.220;14.480;2022-12-29T09:15:01;1.60;99.90
17891;DHT22;9071;48.220;14.480;2022-12-29T09:20:04;1.60;99.90
17891;DHT22;9071;48.220;14.480;2022-12-29T09:25:08;1.80;99.90
17891;DHT22;9071;48.220;14.480;2022-12-29T09:30:12;2.00;99.90
17891;DHT22;9071;48.220;14.480;2022-12-29T09:35:16;2.20;99.90
17891;DHT22;9071;48.220;14.480;2022-12-29T09:40:26;2.50;99.90
17891;DHT22;9071;48.220;14.480;2022-12-29T09:45:34;2.60;99.90
17891;DHT22;9071;48.220;14.480;2022-12-29T09:50:39;2.80;99.90
17891;DHT22;9071;48.220;14.480;2022-12-29T09:55:48;2.90;99.90
17891;DHT22;9071;48.220;14.480;2022-12-29T10:00:56;2.90;99.90
17891;DHT22;9071;48.220;14.480;2022-12-29T10:06:04;2.90;99.90
17891;DHT22;9071;48.220;14.480;2022-12-29T10:11:19;2.80;99.90
17891;DHT22;9071;48.220;14.480;2022-12-29T10:16:30;2.70;99.90
17891;DHT22;9071;48.220;14.480;2022-12-29T10:21:44;2.60;99.90
17891;DHT22;9071;48.220;14.480;2022-12-29T10:26:51;2.70;99.90
17891;DHT22;9071;48.220;14.480;2022-12-29T10:31:58;2.90;99.90
17891;DHT22;9071;48.220;14.480;2022-12-29T10:37:02;3.20;99.90
17891;DHT22;9071;48.220;14.480;2022-12-29T10:42:11;3.70;99.90
17891;DHT22;9071;48.220;14.480;2022-12-29T10:47:19;4.30;99.90
17891;DHT22;9071;48.220;14.480;2022-12-29T10:52:22;4.40;99.90
17891;DHT22;9071;48.220;14.480;2022-12-29T10:57:30;4.50;99.90
17891;DHT22;9071;48.220;14.480;2022-12-29T11:03:00;4.60;99.90
17891;DHT22;9071;48.220;14.480;2022-12-29T11:08:10;4.80;99.90
17891;DHT22;9071;48.220;14.480;2022-12-29T11:13:17;4.80;99.90
17891;DHT22;9071;48.220;14.480;2022-12-29T11:18:22;4.80;99.90
17891;DHT22;9071;48.220;14.480;2022-12-29T11:23:29;5.20;99.90
17891;DHT22;9071;48.220;14.480;2022-12-29T11:28:33;5.80;99.90
17891;DHT22;9071;48.220;14.480;2022-12-29T11:33:37;6.00;99.90
17891;DHT22;9071;48.220;14.480;2022-12-29T11:38:41;6.10;99.90
17891;DHT22;9071;48.220;14.480;2022-12-29T11:43:45;6.30;99.90
17891;DHT22;9071;48.220;14.480;2022-12-29T11:48:48;6.40;99.90
17891;DHT22;9071;48.220;14.480;2022-12-29T11:53:52;6.60;99.90
17891;DHT22;9071;48.220;14.480;2022-12-29T11:59:34;6.30;99.90
17891;DHT22;9071;48.220;14.480;2022-12-29T12:04:38;6.20;99.90
17891;DHT22;9071;48.220;14.480;2022-12-29T12:09:45;6.30;99.90
17891;DHT22;9071;48.220;14.480;2022-12-29T12:14:54;6.40;99.90
17891;DHT22;9071;48.220;14.480;2022-12-29T12:20:04;6.60;99.90
17891;DHT22;9071;48.220;14.480;2022-12-29T12:25:16;6.40;99.90
17891;DHT22;9071;48.220;14.480;2022-12-29T12:30:23;6.00;99.90
17891;DHT22;9071;48.220;14.480;2022-12-29T12:35:31;5.60;99.90
17891;DHT22;9071;48.220;14.480;2022-12-29T12:40:52;5.30;99.90
17891;DHT22;9071;48.220;14.480;2022-12-29T12:51:32;5.30;99.90
17891;DHT22;9071;48.220;14.480;2022-12-29T12:56:56;5.40;99.90
17891;DHT22;9071;48.220;14.480;2022-12-29T13:02:11;5.50;99.90
17891;DHT22;9071;48.220;14.480;2022-12-29T13:07:27;5.60;99.90
17891;DHT22;9071;48.220;14.480;2022-12-29T13:12:38;5.80;99.90
17891;DHT22;9071;48.220;14.480;2022-12-29T13:17:48;5.80;99.90
17891;DHT22;9071;48.220;14.480;2022-12-29T13:22:57;6.10;99.90
17891;DHT22;9071;48.220;14.480;2022-12-29T13:28:09;6.50;99.90
17891;DHT22;9071;48.220;14.480;2022-12-29T13:33:20;6.80;99.90
17891;DHT22;9071;48.220;14.480;2022-12-29T13:38:26;6.80;99.90
17891;DHT22;9071;48.220;14.480;2022-12-29T13:43:34;6.80;99.90
17891;DHT22;9071;48.220;14.480;2022-12-29T13:48:42;6.70;99.90
17891;DHT22;9071;48.220;14.480;2022-12-29T13:54:16;6.60;99.90
17891;DHT22;9071;48.220;14.480;2022-12-29T13:59:24;6.60;99.90
17891;DHT22;9071;48.220;14.480;2022-12-29T14:04:31;6.50;99.90
17891;DHT22;9071;48.220;14.480;2022-12-29T14:09:47;6.40;99.90
17891;DHT22;9071;48.220;14.480;2022-12-29T14:14:50;6.20;99.90
17891;DHT22;9071;48.220;14.480;2022-12-29T14:19:54;6.10;99.90
17891;DHT22;9071;48.220;14.480;2022-12-29T14:24:56;5.80;99.90
17891;DHT22;9071;48.220;14.480;2022-12-29T14:29:58;5.70;99.90
17891;DHT22;9071;48.220;14.480;2022-12-29T14:35:38;5.30;99.90
17891;DHT22;9071;48.220;14.480;2022-12-29T14:40:40;5.10;99.90
17891;DHT22;9071;48.220;14.480;2022-12-29T14:45:42;4.80;99.90
17891;DHT22;9071;48.220;14.480;2022-12-29T14:50:51;4.70;99.90
17891;DHT22;9071;48.220;14.480;2022-12-29T14:55:55;4.60;99.90
17891;DHT22;9071;48.220;14.480;2022-12-29T15:00:58;4.40;99.90
17891;DHT22;9071;48.220;14.480;2022-12-29T15:06:06;4.20;99.90
17891;DHT22;9071;48.220;14.480;2022-12-29T15:11:13;4.00;99.90
17891;DHT22;9071;48.220;14.480;2022-12-29T15:16:23;4.00;99.90
17891;DHT22;9071;48.220;14.480;2022-12-29T15:21:29;4.00;99.90
17891;DHT22;9071;48.220;14.480;2022-12-29T15:26:37;4.00;99.90
17891;DHT22;9071;48.220;14.480;2022-12-29T15:31:46;3.90;99.90
17891;DHT22;9071;48.220;14.480;2022-12-29T15:36:51;3.80;99.90
17891;DHT22;9071;48.220;14.480;2022-12-29T15:41:56;3.80;99.90
17891;DHT22;9071;48.220;14.480;2022-12-29T15:47:02;3.80;99.90
17891;DHT22;9071;48.220;14.480;2022-12-29T15:52:08;3.80;99.90
17891;DHT22;9071;48.220;14.480;2022-12-29T15:57:20;3.70;99.90
17891;DHT22;9071;48.220;14.480;2022-12-29T16:02:23;3.70;99.90
17891;DHT22;9071;48.220;14.480;2022-12-29T16:07:29;3.50;99.90
17891;DHT22;9071;48.220;14.480;2022-12-29T16:12:33;3.30;99.90
17891;DHT22;9071;48.220;14.480;2022-12-29T16:17:45;3.10;99.90
17891;DHT22;9071;48.220;14.480;2022-12-29T16:22:51;2.90;99.90
17891;DHT22;9071;48.220;14.480;2022-12-29T16:27:55;2.80;99.90
17891;DHT22;9071;48.220;14.480;2022-12-29T16:32:58;2.80;99.90
17891;DHT22;9071;48.220;14.480;2022-12-29T16:38:15;2.70;99.90
17891;DHT22;9071;48.220;14.480;2022-12-29T16:43:23;2.60;99.90
17891;DHT22;9071;48.220;14.480;2022-12-29T16:48:26;2.40;99.90
17891;DHT22;9071;48.220;14.480;2022-12-29T16:53:34;2.30;99.90
17891;DHT22;9071;48.220;14.480;2022-12-29T16:58:36;2.20;99.90
17891;DHT22;9071;48.220;14.480;2022-12-29T17:03:41;2.20;99.90
17891;DHT22;9071;48.220;14.480;2022-12-29T17:08:46;2.10;99.90
17891;DHT22;9071;48.220;14.480;2022-12-29T17:13:48;2.00;99.90
17891;DHT22;9071;48.220;14.480;2022-12-29T17:18:50;2.00;99.90
17891;DHT22;9071;48.220;14.480;2022-12-29T17:23:54;1.90;99.90
17891;DHT22;9071;48.220;14.480;2022-12-29T17:28:56;1.90;99.90
17891;DHT22;9071;48.220;14.480;2022-12-29T17:33:58;2.10;99.90
17891;DHT22;9071;48.220;14.480;2022-12-29T17:39:02;2.10;99.90
17891;DHT22;9071;48.220;14.480;2022-12-29T17:44:04;2.00;99.90
17891;DHT22;9071;48.220;14.480;2022-12-29T17:49:10;2.10;99.90
17891;DHT22;9071;48.220;14.480;2022-12-29T17:54:22;2.00;99.90
17891;DHT22;9071;48.220;14.480;2022-12-29T17:59:24;1.90;99.90
17891;DHT22;9071;48.220;14.480;2022-12-29T18:04:26;1.80;99.90
17891;DHT22;9071;48.220;14.480;2022-12-29T18:09:30;1.70;99.90
17891;DHT22;9071;48.220;14.480;2022-12-29T18:14:32;1.60;99.90
17891;DHT22;9071;48.220;14.480;2022-12-29T18:19:34;1.60;99.90
17891;DHT22;9071;48.220;14.480;2022-12-29T18:24:38;1.50;99.90
17891;DHT22;9071;48.220;14.480;2022-12-29T18:29:40;1.40;99.90
17891;DHT22;9071;48.220;14.480;2022-12-29T18:34:42;1.20;99.90
17891;DHT22;9071;48.220;14.480;2022-12-29T18:39:45;1.20;99.90
17891;DHT22;9071;48.220;14.480;2022-12-29T18:44:47;1.20;99.90
17891;DHT22;9071;48.220;14.480;2022-12-29T18:49:50;1.20;99.90
17891;DHT22;9071;48.220;14.480;2022-12-29T18:54:54;1.10;99.90
17891;DHT22;9071;48.220;14.480;2022-12-29T18:59:56;0.90;99.90
17891;DHT22;9071;48.220;14.480;2022-12-29T19:04:58;1.20;99.90
17891;DHT22;9071;48.220;14.480;2022-12-29T19:10:02;1.20;99.90
17891;DHT22;9071;48.220;14.480;2022-12-29T19:15:04;0.90;99.90
17891;DHT22;9071;48.220;14.480;2022-12-29T19:20:23;0.70;99.90
17891;DHT22;9071;48.220;14.480;2022-12-29T19:25:28;0.70;99.90
17891;DHT22;9071;48.220;14.480;2022-12-29T19:30:30;0.60;99.90
17891;DHT22;9071;48.220;14.480;2022-12-29T19:35:34;0.60;99.90
17891;DHT22;9071;48.220;14.480;2022-12-29T19:40:40;0.40;99.90
17891;DHT22;9071;48.220;14.480;2022-12-29T19:45:43;0.30;99.90
17891;DHT22;9071;48.220;14.480;2022-12-29T19:50:46;0.20;99.90
17891;DHT22;9071;48.220;14.480;2022-12-29T19:55:49;0.20;99.90
17891;DHT22;9071;48.220;14.480;2022-12-29T20:00:51;0.10;99.90
17891;DHT22;9071;48.220;14.480;2022-12-29T20:05:53;0.30;99.90
17891;DHT22;9071;48.220;14.480;2022-12-29T20:10:58;0.20;99.90
17891;DHT22;9071;48.220;14.480;2022-12-29T20:16:02;0.20;99.90
17891;DHT22;9071;48.220;14.480;2022-12-29T20:21:05;0.20;99.90
17891;DHT22;9071;48.220;14.480;2022-12-29T20:26:12;0.20;99.90
17891;DHT22;9071;48.220;14.480;2022-12-29T20:31:17;0.30;99.90
17891;DHT22;9071;48.220;14.480;2022-12-29T20:36:21;0.20;99.90
17891;DHT22;9071;48.220;14.480;2022-12-29T20:41:25;0.10;99.90
17891;DHT22;9071;48.220;14.480;2022-12-29T20:46:27;0.00;99.90
17891;DHT22;9071;48.220;14.480;2022-12-29T20:51:29;0.00;99.90
17891;DHT22;9071;48.220;14.480;2022-12-29T20:56:33;0.00;99.90
17891;DHT22;9071;48.220;14.480;2022-12-29T21:01:35;0.00;99.90
17891;DHT22;9071;48.220;14.480;2022-12-29T21:06:37;-0.10;99.90
17891;DHT22;9071;48.220;14.480;2022-12-29T21:11:41;-0.20;99.90
17891;DHT22;9071;48.220;14.480;2022-12-29T21:16:43;-0.30;99.90
17891;DHT22;9071;48.220;14.480;2022-12-29T21:21:46;-0.40;99.90
17891;DHT22;9071;48.220;14.480;2022-12-29T21:26:50;-0.40;99.90
17891;DHT22;9071;48.220;14.480;2022-12-29T21:31:52;-0.20;99.90
17891;DHT22;9071;48.220;14.480;2022-12-29T21:36:54;0.00;99.90
17891;DHT22;9071;48.220;14.480;2022-12-29T21:41:58;0.10;99.90
17891;DHT22;9071;48.220;14.480;2022-12-29T21:47:01;0.30;99.90
17891;DHT22;9071;48.220;14.480;2022-12-29T21:52:03;0.30;99.90
17891;DHT22;9071;48.220;14.480;2022-12-29T21:57:07;0.50;99.90
17891;DHT22;9071;48.220;14.480;2022-12-29T22:02:17;0.50;99.90
17891;DHT22;9071;48.220;14.480;2022-12-29T22:07:37;0.50;99.90
17891;DHT22;9071;48.220;14.480;2022-12-29T22:12:58;0.50;99.90
17891;DHT22;9071;48.220;14.480;2022-12-29T22:18:01;0.60;99.90
17891;DHT22;9071;48.220;14.480;2022-12-29T22:23:03;0.70;99.90
17891;DHT22;9071;48.220;14.480;2022-12-29T22:28:07;0.80;99.90
17891;DHT22;9071;48.220;14.480;2022-12-29T22:33:09;0.90;99.90
17891;DHT22;9071;48.220;14.480;2022-12-29T22:38:11;1.00;99.90
17891;DHT22;9071;48.220;14.480;2022-12-29T22:43:14;1.00;99.90
17891;DHT22;9071;48.220;14.480;2022-12-29T22:48:16;0.90;99.90
17891;DHT22;9071;48.220;14.480;2022-12-29T22:53:18;0.90;99.90
17891;DHT22;9071;48.220;14.480;2022-12-29T22:58:22;0.90;99.90
17891;DHT22;9071;48.220;14.480;2022-12-29T23:03:24;0.90;99.90
17891;DHT22;9071;48.220;14.480;2022-12-29T23:08:27;0.90;99.90
17891;DHT22;9071;48.220;14.480;2022-12-29T23:13:33;1.00;99.90
17891;DHT22;9071;48.220;14.480;2022-12-29T23:18:35;1.00;99.90
17891;DHT22;9071;48.220;14.480;2022-12-29T23:23:38;1.00;99.90
17891;DHT22;9071;48.220;14.480;2022-12-29T23:28:58;1.00;99.90
17891;DHT22;9071;48.220;14.480;2022-12-29T23:34:02;1.10;99.90
17891;DHT22;9071;48.220;14.480;2022-12-29T23:39:05;1.10;99.90
17891;DHT22;9071;48.220;14.480;2022-12-29T23:44:09;1.10;99.90
17891;DHT22;9071;48.220;14.480;2022-12-29T23:49:11;1.10;99.90
17891;DHT22;9071;48.220;14.480;2022-12-29T23:54:13;1.10;99.90
17891;DHT22;9071;48.220;14.480;2022-12-29T23:59:17;1.10;99.90
